Time;durP1;ratioP1;P1;durP2;ratioP2;P2;SDS_P1;SDS_P2;PMS_P1;PMS_P2;Temp;Humidity;BMP_temperature;BMP_pressure;BME280_temperature;BME280_humidity;BME280_pressure;Samples;Min_cycle;Max_cycle;Signal;HPM_P1;HPM_P2
2022/12/02 00:02:20;;;;;;;83.75;43.30;;;;;;;4.76;100.00;102549.38;5068444;28;20048;-61
2022/12/02 00:04:45;;;;;;;92.50;43.75;;;;;;;4.63;100.00;102541.56;5049340;28;20064;-63
2022/12/02 00:07:19;;;;;;;80.72;35.00;;;;;;;4.83;100.00;102539.59;5053866;28;20079;-61
2022/12/02 00:09:44;;;;;;;80.82;38.60;;;;;;;4.78;100.00;102545.50;5067439;28;20064;-61
2022/12/02 00:12:15;;;;;;;84.40;39.53;;;;;;;4.68;100.00;102539.25;5066427;28;20035;-61
2022/12/02 00:14:40;;;;;;;85.60;42.33;;;;;;;4.72;100.00;102539.81;5067832;28;20020;-62
2022/12/02 00:17:06;;;;;;;88.57;43.78;;;;;;;4.55;100.00;102541.44;5069001;28;20024;-61
2022/12/02 00:19:31;;;;;;;86.03;40.45;;;;;;;4.48;100.00;102538.47;5068957;28;20117;-62
2022/12/02 00:21:56;;;;;;;76.82;38.28;;;;;;;4.75;100.00;102544.94;5067474;28;20067;-61
2022/12/02 00:24:21;;;;;;;60.72;30.85;;;;;;;4.82;100.00;102529.75;5068722;28;20035;-61
2022/12/02 00:26:47;;;;;;;79.80;38.90;;;;;;;4.68;100.00;102528.38;5068239;28;20487;-62
2022/12/02 00:29:14;;;;;;;84.28;44.00;;;;;;;4.43;100.00;102535.34;5067767;28;20028;-61
2022/12/02 00:31:39;;;;;;;83.35;42.97;;;;;;;4.48;100.00;102524.88;5067005;28;20020;-62
2022/12/02 00:34:04;;;;;;;78.35;40.65;;;;;;;4.49;100.00;102521.13;5068453;28;20094;-62
2022/12/02 00:36:30;;;;;;;76.80;39.75;;;;;;;4.46;100.00;102523.28;5069176;28;20025;-62
2022/12/02 00:38:56;;;;;;;84.32;41.53;;;;;;;4.40;100.00;102516.59;5068083;28;20035;-62
2022/12/02 00:41:22;;;;;;;81.45;40.10;;;;;;;4.33;100.00;102512.75;5066650;28;20403;-62
2022/12/02 00:46:32;;;;;;;66.32;30.95;;;;;;;4.62;99.70;102512.66;5067171;28;20107;-61
2022/12/02 00:48:59;;;;;;;88.72;43.72;;;;;;;4.39;100.00;102523.03;5067235;28;20055;-63
2022/12/02 00:51:25;;;;;;;85.95;42.67;;;;;;;4.21;100.00;102520.25;5066782;28;20115;-62
2022/12/02 00:53:50;;;;;;;85.88;42.38;;;;;;;4.33;100.00;102521.78;5067549;28;20129;-63
2022/12/02 00:56:15;;;;;;;88.68;43.88;;;;;;;4.11;100.00;102514.00;5068032;28;20025;-61
2022/12/02 00:58:41;;;;;;;86.10;43.05;;;;;;;4.07;100.00;102509.84;5068692;28;20074;-61
2022/12/02 01:01:07;;;;;;;77.90;35.88;;;;;;;4.12;100.00;102518.41;5067159;28;20039;-62
2022/12/02 01:03:32;;;;;;;69.22;31.65;;;;;;;4.27;100.00;102516.94;5067971;28;20032;-62
2022/12/02 01:05:57;;;;;;;49.40;26.67;;;;;;;4.77;97.92;102513.84;5067368;28;20056;-62
2022/12/02 01:08:26;;;;;;;80.22;41.55;;;;;;;4.39;99.61;102509.44;5068832;28;20531;-62
2022/12/02 01:10:52;;;;;;;48.15;25.52;;;;;;;4.50;99.17;102511.97;5064473;28;20056;-61
2022/12/02 01:13:17;;;;;;;69.53;32.10;;;;;;;4.19;100.00;102508.66;5048532;28;20029;-62
2022/12/02 01:15:43;;;;;;;75.35;37.47;;;;;;;4.32;98.92;102508.34;5067348;28;20052;-62
2022/12/02 01:18:08;;;;;;;58.17;29.05;;;;;;;4.09;100.00;102505.09;5065880;28;20360;-61
2022/12/02 01:20:33;;;;;;;71.85;35.92;;;;;;;4.33;97.54;102510.91;5067129;28;20028;-61
2022/12/02 01:22:58;;;;;;;70.70;37.47;;;;;;;4.05;99.71;102509.97;5068651;28;20025;-62
2022/12/02 01:25:24;;;;;;;77.85;37.53;;;;;;;3.84;100.00;102509.31;5064673;28;20053;-62
2022/12/02 01:27:49;;;;;;;83.72;39.55;;;;;;;3.73;100.00;102514.91;5067587;28;20921;-62
2022/12/02 01:30:14;;;;;;;70.63;36.80;;;;;;;3.96;100.00;102502.72;5064249;28;20040;-62
2022/12/02 01:32:39;;;;;;;73.90;36.90;;;;;;;3.73;100.00;102517.63;5068031;28;20029;-61
2022/12/02 01:35:05;;;;;;;57.83;27.92;;;;;;;3.95;100.00;102511.84;5067331;28;20360;-61
2022/12/02 01:37:30;;;;;;;78.28;39.65;;;;;;;4.05;99.85;102512.69;5066575;28;20132;-61
2022/12/02 01:39:56;;;;;;;64.32;31.83;;;;;;;4.27;97.66;102518.81;5065130;28;20775;-62
2022/12/02 01:42:21;;;;;;;75.70;38.13;;;;;;;3.94;99.81;102512.88;5064933;28;20071;-62
2022/12/02 01:44:47;;;;;;;58.78;30.63;;;;;;;3.88;100.00;102508.03;5067220;28;20028;-61
2022/12/02 01:47:12;;;;;;;78.40;40.20;;;;;;;3.89;100.00;102523.31;5065680;28;20040;-61
2022/12/02 01:49:37;;;;;;;55.67;27.20;;;;;;;4.03;100.00;102509.28;5068199;28;20024;-62
2022/12/02 01:52:03;;;;;;;73.88;31.70;;;;;;;3.99;100.00;102513.28;5063743;28;20047;-62
2022/12/02 01:54:28;;;;;;;73.88;32.38;;;;;;;3.75;100.00;102513.78;5066635;28;20035;-62
2022/12/02 01:56:54;;;;;;;73.40;35.58;;;;;;;3.85;100.00;102503.75;5066118;28;20395;-62
2022/12/02 01:59:25;;;;;;;60.05;29.83;;;;;;;3.89;99.94;102502.44;5067153;28;20047;-62
2022/12/02 02:01:51;;;;;;;72.00;34.88;;;;;;;3.87;100.00;102507.16;5066190;28;20032;-62
2022/12/02 02:04:17;;;;;;;74.68;38.95;;;;;;;3.80;100.00;102513.31;5066124;28;20032;-61
2022/12/02 02:06:44;;;;;;;76.47;36.50;;;;;;;3.70;100.00;102517.91;5065412;28;20487;-61
2022/12/02 02:09:10;;;;;;;62.70;28.17;;;;;;;3.62;100.00;102519.50;5064202;28;20362;-61
2022/12/02 02:11:36;;;;;;;77.45;38.78;;;;;;;3.64;100.00;102519.34;5066823;28;20017;-62
2022/12/02 02:14:08;;;;;;;61.65;29.58;;;;;;;3.81;100.00;102517.78;5069622;28;20356;-62
2022/12/02 02:16:33;;;;;;;78.88;39.75;;;;;;;3.58;100.00;102504.47;5070716;28;20468;-62
2022/12/02 02:19:00;;;;;;;66.82;30.45;;;;;;;3.87;97.87;102501.72;5068703;28;20031;-62
2022/12/02 02:21:33;;;;;;;54.42;28.20;;;;;;;4.04;95.97;102500.09;5065546;28;20039;-61
2022/12/02 02:24:00;;;;;;;63.00;35.33;;;;;;;3.76;96.47;102506.47;5068624;28;20044;-62
2022/12/02 02:26:25;;;;;;;59.33;30.55;;;;;;;3.67;97.97;102504.63;5069761;28;20407;-61
2022/12/02 02:28:50;;;;;;;46.10;23.95;;;;;;;3.89;94.60;102502.44;5069947;28;20029;-63
2022/12/02 02:31:16;;;;;;;59.58;31.40;;;;;;;3.65;96.59;102499.34;5070108;28;20075;-61
2022/12/02 02:33:41;;;;;;;54.97;28.30;;;;;;;3.49;96.62;102499.91;5070652;28;20016;-62
2022/12/02 02:36:08;;;;;;;47.00;29.30;;;;;;;3.91;93.94;102494.16;5070337;28;20025;-62
2022/12/02 02:38:35;;;;;;;62.97;33.65;;;;;;;3.50;94.58;102492.66;5067781;28;20021;-61
2022/12/02 02:41:01;;;;;;;59.35;31.48;;;;;;;3.54;94.11;102486.75;5069719;28;20024;-61
2022/12/02 02:43:28;;;;;;;57.28;30.13;;;;;;;3.45;94.26;102494.91;5069868;28;20446;-61
2022/12/02 02:45:54;;;;;;;48.03;23.40;;;;;;;3.30;96.48;102489.06;5070390;28;20115;-62
2022/12/02 02:48:21;;;;;;;52.50;26.05;;;;;;;3.58;93.73;102490.91;5068984;28;20166;-61
2022/12/02 02:50:47;;;;;;;57.85;31.40;;;;;;;3.40;95.11;102511.66;5068483;28;20028;-62
2022/12/02 02:53:15;;;;;;;61.72;31.90;;;;;;;3.31;95.34;102497.06;5061142;28;20371;-61
2022/12/02 02:55:41;;;;;;;65.13;33.77;;;;;;;3.07;97.39;102496.63;5069222;28;20024;-61
2022/12/02 02:58:12;;;;;;;46.85;26.30;;;;;;;3.41;95.67;102493.50;5069502;28;20498;-62
2022/12/02 03:00:40;;;;;;;45.28;26.48;;;;;;;3.59;93.28;102489.03;5065155;28;20030;-61
2022/12/02 03:03:05;;;;;;;58.78;28.60;;;;;;;3.30;94.43;102478.22;5058830;28;20029;-61
2022/12/02 03:05:31;;;;;;;57.33;28.92;;;;;;;3.30;94.80;102476.34;5069830;28;20071;-61
2022/12/02 03:07:57;;;;;;;52.80;26.15;;;;;;;3.29;94.36;102466.47;5068451;28;20028;-61
2022/12/02 03:10:22;;;;;;;58.92;31.63;;;;;;;3.06;96.41;102471.34;5068080;28;20035;-61
2022/12/02 03:12:52;;;;;;;66.97;35.08;;;;;;;2.98;97.55;102470.31;5069347;28;20063;-61
2022/12/02 03:15:18;;;;;;;47.10;24.08;;;;;;;3.36;94.33;102469.50;5069985;28;20082;-61
2022/12/02 03:17:44;;;;;;;64.68;33.75;;;;;;;3.01;97.06;102468.19;5067586;28;20020;-61
2022/12/02 03:20:10;;;;;;;62.25;32.00;;;;;;;3.22;95.52;102472.63;5069427;28;20111;-61
2022/12/02 03:22:35;;;;;;;50.78;26.20;;;;;;;3.38;94.25;102475.63;5070448;28;20399;-61
2022/12/02 03:25:02;;;;;;;60.30;29.73;;;;;;;3.11;95.94;102474.47;5068535;28;20024;-62
2022/12/02 03:27:27;;;;;;;49.72;26.27;;;;;;;3.16;96.50;102471.34;5069966;28;20046;-61
2022/12/02 03:29:52;;;;;;;64.55;34.70;;;;;;;3.12;95.41;102473.47;5069636;28;20100;-61
2022/12/02 03:32:18;;;;;;;62.15;30.17;;;;;;;3.34;94.14;102466.03;5069859;28;20567;-62
2022/12/02 03:34:43;;;;;;;61.53;28.85;;;;;;;3.10;96.50;102467.34;5068386;28;20033;-61
2022/12/02 03:37:10;;;;;;;51.28;27.02;;;;;;;3.16;96.02;102454.19;5067610;28;20102;-61
2022/12/02 03:39:36;;;;;;;61.13;30.45;;;;;;;3.13;96.29;102449.91;5068821;28;20028;-61
2022/12/02 03:42:02;;;;;;;60.05;28.52;;;;;;;3.05;96.56;102447.91;5069560;28;20101;-62
2022/12/02 03:44:27;;;;;;;63.72;35.00;;;;;;;2.86;98.70;102451.47;5060250;28;20514;-61
2022/12/02 03:46:52;;;;;;;57.78;28.25;;;;;;;2.99;97.72;102455.75;5067209;28;20534;-61
2022/12/02 03:49:18;;;;;;;57.60;30.65;;;;;;;3.10;96.09;102448.34;5068058;28;20399;-61
2022/12/02 03:51:44;;;;;;;43.83;25.50;;;;;;;3.17;96.37;102450.47;5069158;28;20036;-61
2022/12/02 03:54:11;;;;;;;61.53;30.63;;;;;;;3.25;95.21;102453.34;5067291;28;20029;-61
2022/12/02 03:56:39;;;;;;;58.45;30.38;;;;;;;3.09;96.86;102438.50;5069290;28;20170;-61
2022/12/02 03:59:05;;;;;;;57.75;39.08;;;;;;;3.79;93.49;102446.38;5067299;28;20036;-61
2022/12/02 04:01:31;;;;;;;56.85;29.42;;;;;;;3.30;93.98;102445.63;5068647;28;20044;-61
2022/12/02 04:03:57;;;;;;;45.17;23.33;;;;;;;3.40;93.72;102446.47;5068982;28;20064;-62
2022/12/02 04:06:22;;;;;;;67.03;32.55;;;;;;;2.84;97.83;102449.91;5068767;28;20044;-61
2022/12/02 04:08:47;;;;;;;51.72;24.00;;;;;;;2.90;98.92;102443.91;5066040;28;20017;-61
2022/12/02 04:11:12;;;;;;;62.10;31.50;;;;;;;2.76;100.00;102434.31;5068369;28;20025;-62
2022/12/02 04:13:38;;;;;;;56.58;25.60;;;;;;;3.04;98.77;102434.47;5068311;28;20039;-61
2022/12/02 04:16:03;;;;;;;63.20;31.00;;;;;;;3.00;98.32;102439.34;5068315;28;20048;-62
2022/12/02 04:18:28;;;;;;;63.85;30.23;;;;;;;3.04;97.86;102429.91;5062247;28;20112;-63
2022/12/02 04:20:54;;;;;;;63.88;32.20;;;;;;;2.80;100.00;102430.31;5065663;28;20070;-62
2022/12/02 04:23:19;;;;;;;54.40;24.90;;;;;;;3.04;98.76;102429.03;5066921;28;20490;-62
2022/12/02 04:25:44;;;;;;;49.30;23.45;;;;;;;3.09;97.28;102427.63;5067213;28;20063;-62
2022/12/02 04:28:09;;;;;;;56.35;27.23;;;;;;;3.16;96.95;102432.47;5068270;28;20082;-62
2022/12/02 04:30:35;;;;;;;68.45;32.65;;;;;;;3.03;97.67;102439.03;5068719;28;20044;-61
2022/12/02 04:33:00;;;;;;;50.90;26.25;;;;;;;3.43;95.06;102429.03;5067631;28;20074;-61
2022/12/02 04:35:25;;;;;;;44.40;21.80;;;;;;;3.09;96.90;102440.31;5068597;28;20470;-61
2022/12/02 04:37:52;;;;;;;47.22;24.48;;;;;;;3.27;95.34;102435.03;5065167;28;20021;-62
2022/12/02 04:40:18;;;;;;;53.05;24.55;;;;;;;3.26;95.17;102433.34;5066928;28;20024;-61
2022/12/02 04:42:43;;;;;;;61.08;29.60;;;;;;;3.04;96.13;102426.31;5069004;28;20035;-61
2022/12/02 04:45:09;;;;;;;46.80;22.85;;;;;;;3.02;97.53;102428.31;5068537;28;20021;-62
2022/12/02 04:47:34;;;;;;;48.55;22.80;;;;;;;3.13;95.49;102422.75;5067947;28;20556;-61
2022/12/02 04:50:00;;;;;;;33.58;19.70;;;;;;;3.07;95.78;102424.19;5066857;28;20029;-62
2022/12/02 04:52:25;;;;;;;51.28;25.70;;;;;;;2.78;96.84;102418.72;5063151;28;20048;-61
2022/12/02 04:54:50;;;;;;;43.85;23.15;;;;;;;3.33;93.92;102412.72;5066978;28;20035;-63
2022/12/02 04:57:15;;;;;;;46.05;23.38;;;;;;;3.09;93.12;102405.91;5068342;28;20090;-61
2022/12/02 04:59:41;;;;;;;39.15;19.65;;;;;;;3.01;93.97;102410.34;5069122;28;20051;-61
2022/12/02 05:02:06;;;;;;;33.47;19.38;;;;;;;3.25;92.68;102396.31;5066591;28;20138;-62
2022/12/02 05:04:31;;;;;;;33.70;17.30;;;;;;;3.18;92.66;102393.31;5066438;28;20024;-62
2022/12/02 05:06:56;;;;;;;30.85;17.75;;;;;;;3.22;93.24;102393.88;5066250;28;20475;-61
2022/12/02 05:09:22;;;;;;;35.05;17.65;;;;;;;3.03;93.27;102398.31;5066427;28;20052;-61
2022/12/02 05:11:47;;;;;;;33.60;16.73;;;;;;;3.09;92.48;102386.91;5065918;28;20033;-61
2022/12/02 05:14:13;;;;;;;32.42;17.83;;;;;;;3.27;90.17;102384.31;5067619;28;20028;-61
2022/12/02 05:16:38;;;;;;;41.20;20.25;;;;;;;2.91;93.49;102395.91;5065575;28;20028;-62
2022/12/02 05:19:03;;;;;;;40.20;21.95;;;;;;;2.79;94.44;102392.47;5067774;28;20341;-62
2022/12/02 05:21:29;;;;;;;42.47;22.77;;;;;;;2.73;95.46;102391.16;5066857;28;20025;-63
2022/12/02 05:23:54;;;;;;;42.55;21.25;;;;;;;2.74;96.07;102402.91;5066731;28;20111;-61
2022/12/02 05:26:19;;;;;;;35.97;21.80;;;;;;;3.40;92.69;102397.59;5065364;28;20464;-61
2022/12/02 05:28:44;;;;;;;49.15;34.90;;;;;;;3.80;88.74;102396.47;5067891;28;20037;-61
2022/12/02 05:31:10;;;;;;;36.92;17.70;;;;;;;3.03;92.31;102397.47;5068137;28;20028;-61
2022/12/02 05:33:35;;;;;;;35.95;18.67;;;;;;;3.05;93.00;102385.47;5066517;28;20052;-61
2022/12/02 05:36:00;;;;;;;43.90;22.02;;;;;;;2.84;93.45;102393.78;5065815;28;20037;-61
2022/12/02 05:38:25;;;;;;;48.95;35.13;;;;;;;3.62;91.43;102385.53;5067583;28;20063;-61
2022/12/02 05:40:57;;;;;;;35.80;21.58;;;;;;;3.48;90.25;102385.97;5066336;28;20425;-62
2022/12/02 05:43:24;;;;;;;29.05;15.38;;;;;;;3.20;91.82;102383.19;5068384;28;20099;-61
2022/12/02 05:45:51;;;;;;;41.00;20.73;;;;;;;3.19;90.92;102384.16;5066675;28;20429;-62
2022/12/02 05:48:18;;;;;;;34.88;19.30;;;;;;;3.30;90.58;102383.16;5067136;28;20462;-62
2022/12/02 05:50:44;;;;;;;43.00;22.38;;;;;;;3.03;93.02;102392.88;5070174;28;20498;-61
2022/12/02 05:53:30;;;;;;;36.67;18.88;;;;;;;3.18;91.83;102382.44;5070126;28;20112;-61
2022/12/02 05:55:55;;;;;;;29.20;17.38;;;;;;;3.27;91.26;102391.59;5070655;28;20046;-61
2022/12/02 05:58:21;;;;;;;44.58;21.90;;;;;;;2.95;92.23;102392.78;5072197;28;20024;-61
2022/12/02 06:00:54;;;;;;;33.38;15.77;;;;;;;3.19;91.92;102386.88;5070389;28;20492;-61
2022/12/02 06:03:19;;;;;;;43.05;21.60;;;;;;;2.93;92.54;102394.75;5069998;28;20024;-62
2022/12/02 06:05:47;;;;;;;33.33;20.25;;;;;;;3.31;91.17;102384.88;5069272;28;20094;-60
2022/12/02 06:08:25;;;;;;;41.05;19.67;;;;;;;3.20;91.43;102385.03;5068549;28;20118;-61
2022/12/02 06:10:54;;;;;;;;;;;;;;;2.95;93.54;102387.34;5069096;28;20028;-62
2022/12/02 06:13:21;;;;;;;39.42;18.98;;;;;;;2.97;92.91;102384.47;5054736;28;19917;-61
2022/12/02 06:15:48;;;;;;;37.00;15.65;;;;;;;2.89;93.75;102387.91;5070971;28;20040;-61
2022/12/02 06:18:17;;;;;;;47.17;20.70;;;;;;;2.72;95.54;102385.91;5069361;28;20064;-62
2022/12/02 06:20:45;;;;;;;44.20;22.98;;;;;;;3.06;92.44;102384.47;5070296;28;20032;-61
2022/12/02 06:23:16;;;;;;;38.90;17.60;;;;;;;2.95;93.42;102389.19;5068884;28;20666;-61
2022/12/02 06:25:43;;;;;;;39.75;20.08;;;;;;;3.02;92.45;102393.91;5069321;28;20032;-61
2022/12/02 06:28:29;;;;;;;44.63;22.65;;;;;;;3.02;92.95;102388.47;5069078;28;20505;-61
2022/12/02 06:30:58;;;;;;;43.67;21.08;;;;;;;2.88;93.09;102378.03;5070263;28;20020;-61
2022/12/02 06:33:29;;;;;;;47.45;21.55;;;;;;;2.88;93.39;102378.03;5071535;28;20082;-62
2022/12/02 06:35:55;;;;;;;40.42;19.48;;;;;;;2.89;93.18;102392.47;5070493;28;20028;-61
2022/12/02 06:38:27;;;;;;;32.60;15.02;;;;;;;2.76;94.00;102382.75;5070266;28;20041;-61
2022/12/02 06:40:52;;;;;;;41.33;19.77;;;;;;;2.79;93.88;102392.47;5067626;28;20111;-62
2022/12/02 06:43:24;;;;;;;41.22;21.90;;;;;;;2.79;93.48;102384.34;5071466;28;20603;-61
2022/12/02 06:45:49;;;;;;;39.05;20.35;;;;;;;2.81;94.46;102382.34;5069335;28;20028;-62
2022/12/02 06:48:25;;;;;;;46.50;22.67;;;;;;;2.86;94.33;102380.06;5069501;28;20528;-61
2022/12/02 06:50:50;;;;;;;41.50;27.20;;;;;;;3.36;91.93;102371.72;5069078;28;20021;-64
2022/12/02 06:53:31;;;;;;;44.30;20.70;;;;;;;2.92;93.07;102378.63;5068516;28;20027;-62
2022/12/02 06:56:20;;;;;;;44.65;22.83;;;;;;;2.86;95.62;102383.63;5065328;28;20036;-61
2022/12/02 06:59:01;;;;;;;35.75;17.58;;;;;;;3.10;93.31;102380.47;5070202;28;20107;-61
2022/12/02 07:01:26;;;;;;;47.75;22.65;;;;;;;2.65;96.20;102385.63;5071076;28;20025;-62
2022/12/02 07:04:02;;;;;;;44.73;21.93;;;;;;;2.69;96.14;102384.34;5068468;28;20130;-62
2022/12/02 07:06:29;;;;;;;43.85;21.17;;;;;;;2.84;94.46;102384.78;5070569;28;20080;-61
2022/12/02 07:08:59;;;;;;;33.45;18.10;;;;;;;3.02;94.72;102383.03;5069465;28;20032;-61
2022/12/02 07:11:50;;;;;;;40.33;28.27;;;;;;;3.57;91.21;102387.81;5066293;28;20120;-61
2022/12/02 07:14:40;;;;;;;40.88;19.23;;;;;;;3.11;93.50;102384.91;5068454;28;20380;-61
2022/12/02 07:17:24;;;;;;;28.45;18.20;;;;;;;3.42;91.87;102389.28;5060663;28;20036;-61
2022/12/02 07:19:55;;;;;;;33.20;17.80;;;;;;;3.18;93.40;102392.47;5069718;28;20101;-62
2022/12/02 07:22:30;;;;;;;29.38;18.23;;;;;;;3.22;92.96;102391.19;5055980;28;20391;-61
2022/12/02 07:25:20;;;;;;;33.88;14.95;;;;;;;2.86;93.63;102402.63;5057101;28;20395;-61
2022/12/02 07:27:48;;;;;;;38.30;18.73;;;;;;;2.73;95.63;102401.16;5063514;28;20032;-61
2022/12/02 07:30:33;;;;;;;39.58;19.73;;;;;;;2.77;94.74;102397.19;5067233;28;20028;-61
2022/12/02 07:32:59;;;;;;;39.70;17.45;;;;;;;2.64;96.50;102392.03;5065658;28;20423;-64
2022/12/02 07:35:25;;;;;;;30.30;14.07;;;;;;;2.90;95.02;102389.63;5067941;28;20502;-61
2022/12/02 07:37:50;;;;;;;34.28;16.20;;;;;;;2.93;94.56;102394.75;5069535;28;20036;-62
2022/12/02 07:40:17;;;;;;;38.90;17.88;;;;;;;2.83;95.31;102402.03;5066814;28;20086;-62
2022/12/02 07:42:43;;;;;;;30.42;17.10;;;;;;;2.94;94.63;102388.34;5069138;28;20077;-61
2022/12/02 07:45:13;;;;;;;35.40;16.30;;;;;;;2.77;96.29;102394.47;5068401;28;20057;-62
2022/12/02 07:47:39;;;;;;;36.90;20.25;;;;;;;3.18;93.86;102387.88;5068925;28;20036;-62
2022/12/02 07:50:05;;;;;;;33.47;15.23;;;;;;;3.07;94.41;102394.31;5068896;28;20489;-61
2022/12/02 07:52:31;;;;;;;41.50;20.55;;;;;;;2.70;97.63;102398.75;5068151;28;20387;-61
2022/12/02 07:54:56;;;;;;;36.17;23.23;;;;;;;3.29;94.77;102389.56;5098821;28;20036;-61
2022/12/02 07:57:22;;;;;;;30.08;14.60;;;;;;;2.82;97.31;102397.59;5068702;28;20071;-60
2022/12/02 07:59:47;;;;;;;30.20;16.35;;;;;;;2.71;98.49;102400.47;5068929;28;20029;-62
2022/12/02 08:02:13;;;;;;;44.45;22.25;;;;;;;2.71;98.73;102400.47;5065175;28;20037;-62
2022/12/02 08:04:39;;;;;;;47.78;23.60;;;;;;;2.72;98.37;102403.03;5069537;28;20031;-61
2022/12/02 08:07:04;;;;;;;34.88;19.10;;;;;;;3.12;97.16;102399.31;5068959;28;20049;-62
2022/12/02 08:09:30;;;;;;;50.53;22.42;;;;;;;2.75;97.50;102405.47;5067432;28;20506;-61
2022/12/02 08:11:55;;;;;;;52.05;23.33;;;;;;;2.70;98.50;102398.75;5067532;28;20044;-61
2022/12/02 08:14:20;;;;;;;31.33;15.65;;;;;;;2.88;98.67;102402.47;5068046;28;20120;-61
2022/12/02 08:16:45;;;;;;;48.35;22.35;;;;;;;2.98;96.64;102402.47;5068702;28;20078;-61
2022/12/02 08:19:11;;;;;;;54.15;25.15;;;;;;;2.88;97.61;102405.16;5067401;28;20091;-62
2022/12/02 08:21:36;;;;;;;46.75;22.25;;;;;;;2.87;97.28;102398.03;5067297;28;20458;-61
2022/12/02 08:24:02;;;;;;;52.88;24.20;;;;;;;2.65;99.13;102398.31;5066345;28;20032;-61
2022/12/02 08:26:27;;;;;;;35.42;19.00;;;;;;;2.86;98.17;102391.75;5066557;28;20028;-61
2022/12/02 08:28:53;;;;;;;52.00;24.52;;;;;;;2.59;100.00;102395.16;5066504;28;20024;-61
2022/12/02 08:31:18;;;;;;;57.13;27.10;;;;;;;2.54;100.00;102400.16;5053443;28;20035;-61
2022/12/02 08:33:44;;;;;;;56.97;26.00;;;;;;;2.65;100.00;102396.47;5067528;28;20020;-61
2022/12/02 08:36:10;;;;;;;32.15;16.80;;;;;;;2.71;100.00;102390.47;5066569;28;20082;-61
2022/12/02 08:38:35;;;;;;;43.22;24.00;;;;;;;3.20;96.14;102379.63;5068530;28;20103;-61
2022/12/02 08:41:00;;;;;;;45.40;21.35;;;;;;;3.11;95.88;102387.63;5062737;28;20033;-60
2022/12/02 08:43:26;;;;;;;41.20;24.30;;;;;;;3.26;95.52;102387.19;5067056;28;20200;-62
2022/12/02 08:45:51;;;;;;;46.65;22.90;;;;;;;2.78;98.32;102396.16;5067660;28;20027;-61
2022/12/02 08:48:16;;;;;;;30.50;17.35;;;;;;;2.86;98.55;102394.47;5066744;28;20035;-62
2022/12/02 08:50:42;;;;;;;34.92;18.45;;;;;;;2.81;98.67;102398.63;5066123;28;20086;-61
2022/12/02 08:53:07;;;;;;;41.17;24.55;;;;;;;3.31;95.72;102387.59;5067461;28;20020;-61
2022/12/02 08:55:32;;;;;;;45.80;23.48;;;;;;;2.80;98.39;102397.75;5066743;28;20051;-61
2022/12/02 08:57:58;;;;;;;40.35;18.42;;;;;;;3.05;97.47;102387.34;5068787;28;20047;-61
2022/12/02 09:00:23;;;;;;;46.08;31.30;;;;;;;3.48;95.82;102385.97;5066039;28;20086;-62
2022/12/02 09:02:48;;;;;;;27.27;15.70;;;;;;;2.91;98.85;102404.91;5067518;28;20020;-61
2022/12/02 09:05:14;;;;;;;39.83;19.33;;;;;;;2.71;99.66;102395.88;5063844;28;20060;-61
2022/12/02 09:07:39;;;;;;;37.00;23.13;;;;;;;3.14;98.37;102389.16;5068766;28;20035;-62
2022/12/02 09:10:06;;;;;;;32.53;19.17;;;;;;;3.01;99.38;102400.34;5066519;28;20119;-61
2022/12/02 09:12:32;;;;;;;35.25;17.65;;;;;;;2.62;100.00;102399.44;5068786;28;20441;-62
2022/12/02 09:14:57;;;;;;;27.17;15.45;;;;;;;2.64;100.00;102400.19;5066927;28;20024;-61
2022/12/02 09:17:22;;;;;;;29.80;15.38;;;;;;;2.81;100.00;102399.47;5067288;28;20028;-61
2022/12/02 09:19:47;;;;;;;29.58;15.13;;;;;;;2.74;100.00;102400.19;5066997;28;20025;-61
2022/12/02 09:22:13;;;;;;;32.63;15.10;;;;;;;2.84;100.00;102395.63;5066995;28;20021;-62
2022/12/02 09:24:39;;;;;;;33.63;18.58;;;;;;;2.57;100.00;102402.56;5069157;28;20093;-61
2022/12/02 09:27:04;;;;;;;32.50;14.45;;;;;;;2.66;100.00;102398.16;5071891;28;20035;-62
2022/12/02 09:29:29;;;;;;;41.40;18.77;;;;;;;2.52;100.00;102390.44;5065056;28;20025;-62
2022/12/02 09:31:55;;;;;;;42.58;20.80;;;;;;;2.61;100.00;102392.31;5071081;28;20387;-62
2022/12/02 09:34:20;;;;;;;43.67;19.95;;;;;;;2.30;100.00;102391.53;5071110;28;20069;-61
2022/12/02 09:36:46;;;;;;;41.15;24.15;;;;;;;2.91;100.00;102385.91;5069275;28;20028;-62
2022/12/02 09:39:11;;;;;;;34.17;16.17;;;;;;;2.80;100.00;102375.19;5070034;28;20368;-62
2022/12/02 09:41:37;;;;;;;49.67;21.83;;;;;;;2.60;100.00;102382.47;5069678;28;20017;-61
2022/12/02 09:44:03;;;;;;;47.42;20.95;;;;;;;2.59;100.00;102378.91;5052209;28;20574;-61
2022/12/02 09:46:30;;;;;;;34.10;20.70;;;;;;;3.01;100.00;102367.75;5048239;28;20059;-63
2022/12/02 09:48:55;;;;;;;30.67;14.68;;;;;;;2.83;100.00;102377.59;5049503;28;20052;-61
2022/12/02 09:51:21;;;;;;;46.28;21.92;;;;;;;2.65;100.00;102380.19;5053086;28;20082;-62
2022/12/02 09:53:46;;;;;;;45.38;20.73;;;;;;;2.56;100.00;102387.31;5050832;28;20032;-61
2022/12/02 09:56:14;;;;;;;38.45;19.67;;;;;;;2.97;100.00;102385.31;5060315;28;20021;-62
2022/12/02 09:58:40;;;;;;;;;;;;;;;3.25;100.00;102372.75;5055453;28;20059;-61
2022/12/02 10:01:09;;;;;;;33.27;20.53;;;;;;;2.81;100.00;102371.47;5052394;28;19978;-62
2022/12/02 10:03:35;;;;;;;34.78;14.98;;;;;;;2.67;100.00;102383.59;5047944;28;20550;-61
2022/12/02 10:06:05;;;;;;;52.78;22.23;;;;;;;2.49;100.00;102379.88;5053295;28;20053;-62
2022/12/02 10:08:31;;;;;;;53.63;19.80;;;;;;;2.42;100.00;102381.41;5049345;28;20043;-62
2022/12/02 10:10:57;;;;;;;50.40;20.67;;;;;;;2.55;100.00;102382.88;5047033;28;20024;-62
2022/12/02 10:13:25;;;;;;;49.20;31.23;;;;;;;3.09;100.00;102370.63;5058757;28;20047;-62
2022/12/02 10:15:51;;;;;;;46.03;18.75;;;;;;;2.85;100.00;102375.63;5063713;28;20062;-62
2022/12/02 10:18:20;;;;;;;40.33;15.10;;;;;;;2.69;100.00;102380.78;5048367;28;20025;-62
2022/12/02 10:20:46;;;;;;;61.30;25.35;;;;;;;2.70;100.00;102369.78;5054359;28;20386;-62
2022/12/02 10:23:14;;;;;;;54.00;21.23;;;;;;;2.73;100.00;102371.31;5058464;28;20016;-61
2022/12/02 10:25:53;;;;;;;57.95;30.60;;;;;;;3.22;100.00;102364.03;5049998;28;20035;-62
2022/12/02 10:28:23;;;;;;;64.38;26.13;;;;;;;2.77;100.00;102362.75;5067005;28;20035;-62
2022/12/02 10:30:54;;;;;;;43.35;23.95;;;;;;;3.02;100.00;102355.03;5053607;28;20055;-62
2022/12/02 10:33:25;;;;;;;53.95;32.33;;;;;;;3.08;100.00;102362.59;5054946;28;20034;-62
2022/12/02 10:35:52;;;;;;;55.85;28.90;;;;;;;3.18;100.00;102346.31;5048546;28;20657;-62
2022/12/02 10:38:33;;;;;;;62.53;32.03;;;;;;;3.30;100.00;102356.03;5052804;28;20021;-62
2022/12/02 10:41:13;;;;;;;65.53;27.25;;;;;;;3.03;100.00;102340.47;5066014;28;20043;-61
2022/12/02 10:43:39;;;;;;;56.42;29.77;;;;;;;2.89;100.00;102347.22;5070641;28;20114;-61
2022/12/02 10:46:04;;;;;;;63.85;26.73;;;;;;;2.91;100.00;102345.19;5046255;28;20070;-61
2022/12/02 10:48:30;;;;;;;50.83;24.15;;;;;;;3.04;100.00;102350.31;5050031;28;20040;-61
2022/12/02 10:50:55;;;;;;;47.72;16.77;;;;;;;2.97;100.00;102347.34;5048479;28;20490;-62
2022/12/02 10:53:25;;;;;;;57.47;21.90;;;;;;;2.94;100.00;102346.75;5052181;28;20016;-62
2022/12/02 10:55:50;;;;;;;44.22;21.58;;;;;;;3.11;100.00;102340.63;5047089;28;20037;-64
2022/12/02 10:58:25;;;;;;;64.40;36.15;;;;;;;3.50;100.00;102327.81;5050596;28;20516;-62
2022/12/02 11:00:51;;;;;;;62.03;26.48;;;;;;;3.02;100.00;102333.34;5051713;28;20032;-63
2022/12/02 11:03:16;;;;;;;62.75;34.50;;;;;;;3.35;99.55;102332.84;5050499;28;20024;-61
2022/12/02 11:05:42;;;;;;;48.13;24.13;;;;;;;3.24;100.00;102333.00;5052380;28;20409;-62
2022/12/02 11:08:16;;;;;;;58.40;34.28;;;;;;;3.56;98.34;102335.34;5046116;28;20036;-61
2022/12/02 11:10:44;;;;;;;63.58;25.13;;;;;;;2.88;100.00;102331.91;5046679;28;20065;-62
2022/12/02 11:13:12;;;;;;;53.63;27.70;;;;;;;3.35;99.21;102334.72;5045474;28;20112;-62
2022/12/02 11:15:39;;;;;;;76.68;44.65;;;;;;;3.57;97.53;102326.19;5040325;28;20631;-62
2022/12/02 11:18:24;;;;;;;45.65;25.27;;;;;;;3.07;100.00;102326.47;5054191;28;20032;-62